Terminal Aerodrome Forecast
Issued by NWS

Home | Current Version | Previous Version | Text Only | Print | Product List | Glossary Off
Versions: 1 2 3 4 5 6 7 8 9 10 11 12 13 14 15 16 17 18 19 20 21

000
FTUS43 KMPX 301500 AAB
TAFRWF
TAF AMD
KRWF 301534Z 3016/0112 11011G16KT P6SM OVC007
      TEMPO 3016/3018 SCT009 BKN020
     FM301800 13014G21KT P6SM BKN020
     FM302100 14015G23KT P6SM VCTS SCT015CB OVC030
      TEMPO 3022/0101 2SM SHRA BR OVC012
     FM010400 15012KT 6SM BR OVC015
     FM010700 15009KT 2SM BR OVC008=

USA.gov is the U.S. government's official web portal to all federal, state and local government web resources and services.